Time;durP1;ratioP1;P1;durP2;ratioP2;P2;SDS_P1;SDS_P2;PMS_P1;PMS_P2;Temp;Humidity;BMP_temperature;BMP_pressure;BME280_temperature;BME280_humidity;BME280_pressure;Samples;Min_cycle;Max_cycle;Signal;HPM_P1;HPM_P2
2022/09/17 00:00:38;;;;;;;;;1.00;1.00;;;;;22.96;32.60;101421.19;5098540;27;45573;-49
2022/09/17 00:03:04;;;;;;;;;0.50;0.50;;;;;22.95;32.85;101423.94;5098531;27;45345;-50
2022/09/17 00:05:29;;;;;;;;;0.00;0.00;;;;;22.95;32.60;101429.22;5097422;27;47226;-53
2022/09/17 00:07:55;;;;;;;;;3.00;1.00;;;;;22.94;32.69;101432.81;5097644;27;45366;-47
2022/09/17 00:10:22;;;;;;;;;0.50;0.50;;;;;22.93;32.98;101436.38;5097254;27;47179;-51
2022/09/17 00:12:47;;;;;;;;;2.75;1.00;;;;;22.92;32.49;101434.69;5098428;27;45234;-48
2022/09/17 00:15:13;;;;;;;;;1.00;1.00;;;;;22.92;32.55;101435.56;5098109;27;46649;-51
2022/09/17 00:17:38;;;;;;;;;1.25;0.00;;;;;22.92;32.82;101437.31;5098229;27;45434;-48
2022/09/17 00:20:07;;;;;;;;;0.50;0.00;;;;;22.92;32.76;101437.31;5098847;27;45373;-52
2022/09/17 00:22:32;;;;;;;;;0.75;0.75;;;;;22.92;32.79;101432.03;5098684;27;45338;-51
2022/09/17 00:24:58;;;;;;;;;0.00;0.00;;;;;22.91;32.69;101432.97;5097476;27;61911;-49
2022/09/17 00:27:23;;;;;;;;;3.00;1.25;;;;;22.90;32.79;101429.50;5098820;27;45327;-55
2022/09/17 00:29:48;;;;;;;;;1.00;1.00;;;;;22.90;32.81;101433.91;5105265;27;45369;-54
2022/09/17 00:32:13;;;;;;;;;0.00;0.00;;;;;22.88;32.74;101433.13;5106368;27;45236;-54
2022/09/17 00:34:39;;;;;;;;;0.00;0.00;;;;;22.90;32.68;101437.44;5104864;27;46325;-53
2022/09/17 00:37:04;;;;;;;;;1.00;1.00;;;;;22.89;32.68;101440.13;5099871;27;50421;-50
2022/09/17 00:39:30;;;;;;;;;2.25;1.00;;;;;22.85;32.77;101435.03;5097698;27;45564;-48
2022/09/17 00:41:55;;;;;;;;;1.00;1.00;;;;;22.89;32.77;101438.34;5098302;27;45216;-51
2022/09/17 00:44:44;;;;;;;;;1.50;0.00;;;;;22.89;32.69;101442.78;5098199;27;45334;-51
2022/09/17 00:47:36;;;;;;;;;1.00;1.00;;;;;22.89;32.61;101445.41;5097882;27;45397;-52
2022/09/17 00:50:07;;;;;;;;;3.00;1.00;;;;;22.87;32.74;101436.75;5087869;27;45248;-52
2022/09/17 00:52:36;;;;;;;;;3.00;1.00;;;;;22.86;32.72;101435.88;5097791;27;45483;-48
2022/09/17 00:55:06;;;;;;;;;1.00;0.25;;;;;22.85;32.65;101432.41;5096886;27;45508;-51
2022/09/17 00:57:32;;;;;;;;;2.00;1.00;;;;;22.85;32.74;101434.16;5107060;27;45422;-46
2022/09/17 00:59:58;;;;;;;;;0.25;0.25;;;;;22.83;32.70;101439.56;5103930;27;44751;-46
2022/09/17 01:02:24;;;;;;;;;0.00;0.00;;;;;22.84;32.87;101440.38;5097771;27;45400;-46
2022/09/17 01:04:50;;;;;;;;;1.50;1.00;;;;;22.84;32.54;101435.09;5108313;27;45756;-49
2022/09/17 01:07:41;;;;;;;;;1.00;1.00;;;;;22.82;32.85;101445.78;5107659;27;45400;-48
2022/09/17 01:10:59;;;;;;;;;0.00;0.00;;;;;22.82;32.84;101435.19;5096445;27;45504;-46
2022/09/17 01:13:43;;;;;;;;;1.00;1.00;;;;;22.82;33.02;101445.78;5091818;27;45337;-49
2022/09/17 01:16:26;;;;;;;;;1.00;0.00;;;;;22.82;33.02;101439.66;5097619;27;47257;-48
2022/09/17 01:19:03;;;;;;;;;0.50;0.00;;;;;22.81;32.98;101443.22;5097484;27;45610;-50
2022/09/17 01:21:36;;;;;;;;;0.25;0.25;;;;;22.80;32.76;101439.72;5097745;27;45333;-48
2022/09/17 01:24:23;;;;;;;;;0.00;0.00;;;;;22.80;32.84;101445.00;5097481;27;45390;-48
2022/09/17 01:27:10;;;;;;;;;1.75;1.00;;;;;22.79;32.79;101445.94;5096541;27;45455;-46
2022/09/17 01:30:05;;;;;;;;;1.00;1.00;;;;;22.79;32.73;101447.75;5097471;27;45239;-49
2022/09/17 01:32:50;;;;;;;;;1.00;1.00;;;;;22.78;32.93;101454.78;5097717;27;45330;-49
2022/09/17 01:35:45;;;;;;;;;0.75;0.75;;;;;22.78;32.85;101449.50;5098405;27;45518;-46
2022/09/17 01:38:19;;;;;;;;;1.00;1.00;;;;;22.77;33.19;101457.53;5096753;27;46601;-50
2022/09/17 01:41:04;;;;;;;;;0.00;0.00;;;;;22.76;32.85;101456.69;5096351;27;45251;-53
2022/09/17 01:43:45;;;;;;;;;1.00;0.00;;;;;22.75;32.74;101454.13;5097747;27;45328;-50
2022/09/17 01:46:33;;;;;;;;;0.00;0.00;;;;;22.74;32.86;101453.28;5097576;27;45869;-55
2022/09/17 01:49:01;;;;;;;;;0.25;0.25;;;;;22.75;32.89;101469.97;5097403;27;46588;-47
2022/09/17 01:51:34;;;;;;;;;1.00;1.00;;;;;22.74;33.20;101469.13;5097682;27;45266;-46
2022/09/17 01:54:17;;;;;;;;;1.00;1.00;;;;;22.74;33.02;101463.84;5096369;27;45396;-49
2022/09/17 01:56:50;;;;;;;;;0.75;0.75;;;;;22.73;33.14;101462.16;5102797;27;45323;-53
2022/09/17 01:59:26;;;;;;;;;1.25;1.00;;;;;22.73;32.90;101479.78;5098222;27;46542;-49
2022/09/17 02:01:59;;;;;;;;;1.25;1.00;;;;;22.71;33.10;101471.94;5096904;27;45389;-47
2022/09/17 02:04:37;;;;;;;;;1.50;0.50;;;;;22.71;33.10;101469.28;5097170;27;45431;-51
2022/09/17 02:07:09;;;;;;;;;0.50;0.00;;;;;22.69;33.20;101472.03;5097096;27;45376;-52
2022/09/17 02:09:40;;;;;;;;;1.00;0.50;;;;;22.68;32.96;101474.75;5095824;27;46521;-48
2022/09/17 02:12:11;;;;;;;;;1.50;0.50;;;;;22.68;33.05;101466.81;5097182;27;45693;-51
2022/09/17 02:14:43;;;;;;;;;0.25;0.25;;;;;22.68;33.11;101466.81;5097281;27;45439;-52
2022/09/17 02:17:37;;;;;;;;;0.00;0.00;;;;;22.68;33.18;101469.47;5105943;27;45413;-45
2022/09/17 02:20:04;;;;;;;;;0.75;0.75;;;;;22.68;32.98;101466.81;5097272;27;46463;-52
2022/09/17 02:22:41;;;;;;;;;0.00;0.00;;;;;22.67;32.89;101468.63;5097144;27;45686;-49
2022/09/17 02:25:23;;;;;;;;;0.00;0.00;;;;;22.68;32.91;101474.75;5077545;28;45429;-48
2022/09/17 02:28:01;;;;;;;;;0.00;0.00;;;;;22.67;32.97;101473.03;5079785;28;45395;-49
2022/09/17 02:30:26;;;;;;;;;0.00;0.00;;;;;22.66;32.64;101460.75;5076169;28;45661;-46
2022/09/17 02:32:53;;;;;;;;;0.00;0.00;;;;;22.66;33.10;101466.03;5076179;28;45410;-49
2022/09/17 02:35:18;;;;;;;;;0.50;0.00;;;;;22.66;32.96;101460.75;5083748;28;45323;-51
2022/09/17 02:37:44;;;;;;;;;0.75;0.00;;;;;22.64;32.97;101462.66;5095020;27;46198;-49
2022/09/17 02:40:13;;;;;;;;;0.25;0.25;;;;;22.64;32.95;101462.66;5109094;27;45205;-48
2022/09/17 02:42:53;;;;;;;;;0.00;0.00;;;;;22.65;32.93;101461.72;5117888;27;45861;-50
2022/09/17 02:45:25;;;;;;;;;0.00;0.00;;;;;22.63;32.92;101455.66;5097119;27;45293;-49
2022/09/17 02:47:56;;;;;;;;;0.00;0.00;;;;;22.63;32.97;101447.72;5096648;27;45413;-47
2022/09/17 02:50:42;;;;;;;;;0.00;0.00;;;;;22.63;32.85;101460.94;5095762;27;46636;-51
2022/09/17 02:53:27;;;;;;;;;0.00;0.00;;;;;22.62;32.92;101457.44;5097272;27;45456;-46
2022/09/17 02:56:10;;;;;;;;;0.00;0.00;;;;;22.62;33.10;101459.22;5079123;27;45246;-49
2022/09/17 02:58:44;;;;;;;;;1.50;1.00;;;;;22.62;32.94;101456.59;5077930;28;45577;-49
2022/09/17 03:01:43;;;;;;;;;0.00;0.00;;;;;22.61;33.07;101457.53;5079701;28;46400;-51
2022/09/17 03:04:14;;;;;;;;;3.00;0.25;;;;;22.61;33.10;101457.53;5078878;28;45331;-53
2022/09/17 03:06:41;;;;;;;;;1.00;1.00;;;;;22.61;32.97;101465.44;5061523;28;45282;-52
2022/09/17 03:09:06;;;;;;;;;0.00;0.00;;;;;22.60;33.00;101466.38;5096956;27;45323;-52
2022/09/17 03:11:32;;;;;;;;;1.00;0.00;;;;;22.59;32.85;101467.31;5107971;27;47225;-50
2022/09/17 03:13:57;;;;;;;;;0.75;0.75;;;;;22.59;33.07;101464.69;5106676;27;45437;-46
2022/09/17 03:16:23;;;;;;;;;1.00;0.00;;;;;22.57;32.88;101456.84;5100421;27;45334;-48
2022/09/17 03:18:48;;;;;;;;;0.25;0.25;;;;;22.57;32.98;101461.25;5099558;27;45530;-46
2022/09/17 03:21:14;;;;;;;;;0.00;0.00;;;;;22.57;33.19;101471.81;5099558;27;46565;-47
2022/09/17 03:23:40;;;;;;;;;2.00;0.50;;;;;22.54;32.99;101460.47;5098415;27;45381;-50
2022/09/17 03:26:05;;;;;;;;;0.50;0.50;;;;;22.53;33.27;101461.44;5099618;27;45817;-50
2022/09/17 03:28:31;;;;;;;;;0.00;0.00;;;;;22.53;33.16;101453.53;5099333;27;45385;-48
2022/09/17 03:30:56;;;;;;;;;1.00;1.00;;;;;22.53;32.99;101469.38;5099434;27;46139;-52
2022/09/17 03:33:21;;;;;;;;;0.75;0.00;;;;;22.53;32.88;101468.50;5098809;27;54254;-47
2022/09/17 03:35:47;;;;;;;;;2.00;0.25;;;;;22.52;33.00;101467.66;5099054;27;45445;-48
2022/09/17 03:38:13;;;;;;;;;0.00;0.00;;;;;22.53;33.02;101463.22;5098147;27;45418;-46
2022/09/17 03:40:39;;;;;;;;;1.50;0.00;;;;;22.51;32.87;101468.59;5098176;27;47446;-47
2022/09/17 03:43:05;;;;;;;;;0.00;0.00;;;;;22.51;33.09;101468.59;5102010;27;45636;-48
2022/09/17 03:45:31;;;;;;;;;0.00;0.00;;;;;22.50;32.89;101466.88;5104912;27;45259;-48
2022/09/17 03:47:56;;;;;;;;;0.00;0.00;;;;;22.51;32.91;101467.72;5122167;27;44757;-51
2022/09/17 03:50:21;;;;;;;;;1.00;1.00;;;;;22.49;33.16;101470.47;5120028;27;45401;-54
2022/09/17 03:52:47;;;;;;;;;1.75;0.50;;;;;22.49;33.05;101473.09;5114240;27;60833;-52
2022/09/17 03:55:12;;;;;;;;;0.50;0.00;;;;;22.49;32.88;101469.63;5104821;27;45302;-51
2022/09/17 03:57:38;;;;;;;;;0.25;0.25;;;;;22.49;32.91;101469.63;5102291;27;45480;-49
2022/09/17 04:00:04;;;;;;;;;0.00;0.00;;;;;22.48;32.65;101481.97;5098518;27;59148;-49
2022/09/17 04:02:30;;;;;;;;;1.00;0.00;;;;;22.47;32.90;101477.59;5098937;27;45473;-46
2022/09/17 04:04:55;;;;;;;;;0.00;0.00;;;;;22.47;33.16;101482.06;5098273;27;45310;-50
2022/09/17 04:07:20;;;;;;;;;0.00;0.00;;;;;22.47;33.05;101474.97;5098032;27;45564;-47
2022/09/17 04:09:46;;;;;;;;;1.00;1.00;;;;;22.47;33.03;101480.25;5098281;27;46330;-48
2022/09/17 04:12:11;;;;;;;;;2.00;0.00;;;;;22.44;32.91;101477.75;5105356;27;45279;-49
2022/09/17 04:14:36;;;;;;;;;1.25;0.25;;;;;22.46;33.16;101480.34;5118135;27;52345;-52
2022/09/17 04:17:02;;;;;;;;;1.33;1.33;;;;;22.45;32.98;101487.41;5108176;27;46958;-53
2022/09/17 04:19:27;;;;;;;;;2.00;0.75;;;;;22.45;33.01;101486.56;5102275;27;46351;-48
2022/09/17 04:21:52;;;;;;;;;2.00;0.00;;;;;22.46;32.86;101491.75;5099108;27;45458;-54
2022/09/17 04:24:18;;;;;;;;;0.75;0.00;;;;;22.46;32.98;101497.03;5106237;27;45457;-53
2022/09/17 04:26:43;;;;;;;;;1.00;0.50;;;;;22.45;33.00;101497.13;5099506;27;45468;-53
2022/09/17 04:29:09;;;;;;;;;1.00;0.00;;;;;22.46;33.10;101501.47;5098361;27;45348;-51
2022/09/17 04:31:34;;;;;;;;;1.00;1.00;;;;;22.45;32.97;101499.75;5098583;27;45398;-52
2022/09/17 04:33:59;;;;;;;;;1.00;1.00;;;;;22.44;33.06;101504.19;5099174;27;45351;-56
2022/09/17 04:36:25;;;;;;;;;1.25;1.00;;;;;22.43;33.12;101502.50;5098888;27;45219;-50
2022/09/17 04:38:50;;;;;;;;;0.00;0.00;;;;;22.43;32.92;101507.78;5098688;27;45369;-53
2022/09/17 04:41:15;;;;;;;;;0.00;0.00;;;;;22.44;33.34;101505.97;5098622;27;45171;-48
2022/09/17 04:43:41;;;;;;;;;1.00;0.00;;;;;22.43;33.13;101506.91;5098419;27;45368;-48
2022/09/17 04:46:06;;;;;;;;;1.00;1.00;;;;;22.42;33.20;101514.00;5100106;27;45596;-47
2022/09/17 04:48:31;;;;;;;;;0.00;0.00;;;;;22.42;33.07;101511.34;5100281;27;45592;-47
2022/09/17 04:50:57;;;;;;;;;0.00;0.00;;;;;22.41;32.93;101514.06;5111038;27;48451;-48
2022/09/17 04:53:23;;;;;;;;;1.00;0.25;;;;;22.41;32.95;101506.13;5121752;27;44715;-48
2022/09/17 04:55:48;;;;;;;;;1.00;1.00;;;;;22.39;33.31;101507.03;5121377;27;44862;-49
2022/09/17 04:58:14;;;;;;;;;0.00;0.00;;;;;22.41;33.27;101506.13;5116726;27;45409;-54
2022/09/17 05:00:40;;;;;;;;;0.00;0.00;;;;;22.39;33.65;101506.19;5107036;27;45475;-53
2022/09/17 05:03:06;;;;;;;;;2.00;0.00;;;;;22.39;33.28;101509.69;5100618;27;45465;-53
2022/09/17 05:05:31;;;;;;;;;2.25;1.00;;;;;22.39;33.06;101514.97;5099457;27;45385;-50
2022/09/17 05:07:56;;;;;;;;;1.00;0.00;;;;;22.39;33.21;101514.97;5105811;27;50084;-50
2022/09/17 05:10:22;;;;;;;;;1.50;1.00;;;;;22.39;33.25;101519.41;5113828;27;46679;-54
2022/09/17 05:12:49;;;;;;;;;1.00;0.00;;;;;22.38;33.22;101517.69;5113154;27;44783;-52
2022/09/17 05:15:15;;;;;;;;;1.00;1.00;;;;;22.37;33.74;101515.97;5136867;27;44961;-53
2022/09/17 05:17:40;;;;;;;;;2.00;1.00;;;;;22.36;33.16;101523.06;5119216;27;46359;-54
2022/09/17 05:20:06;;;;;;;;;1.00;1.00;;;;;22.36;33.32;101517.78;5118985;27;44841;-53
2022/09/17 05:22:31;;;;;;;;;0.00;0.00;;;;;22.37;33.45;101510.69;5115985;27;45333;-49
2022/09/17 05:24:57;;;;;;;;;0.25;0.25;;;;;22.36;33.37;101519.56;5117776;27;45204;-50
2022/09/17 05:27:22;;;;;;;;;1.00;1.00;;;;;22.35;33.53;101517.84;5120011;27;45663;-52
2022/09/17 05:29:47;;;;;;;;;1.00;1.00;;;;;22.34;33.42;101524.94;5120668;27;45307;-51
2022/09/17 05:32:12;;;;;;;;;1.00;1.00;;;;;22.35;33.40;101528.41;5120023;27;51685;-55
2022/09/17 05:34:39;;;;;;;;;1.00;0.00;;;;;22.35;33.49;101536.31;5117267;27;45219;-45
2022/09/17 05:37:04;;;;;;;;;0.50;0.50;;;;;22.33;33.30;101532.91;5099036;27;46379;-47
2022/09/17 05:39:29;;;;;;;;;2.00;0.00;;;;;22.34;33.41;101534.63;5100024;27;45475;-46
2022/09/17 05:41:55;;;;;;;;;0.25;0.25;;;;;22.32;33.38;101533.88;5099298;27;47443;-48
2022/09/17 05:44:21;;;;;;;;;1.00;1.00;;;;;22.33;33.31;101527.63;5098692;27;45354;-46
2022/09/17 05:46:46;;;;;;;;;1.00;1.00;;;;;22.32;33.34;101531.22;5097637;27;46279;-49
2022/09/17 05:49:13;;;;;;;;;0.00;0.00;;;;;22.31;33.48;101535.63;5097200;27;45388;-49
2022/09/17 05:51:39;;;;;;;;;0.00;0.00;;;;;22.31;33.55;101534.78;5096500;27;45417;-49
2022/09/17 05:54:05;;;;;;;;;0.00;0.00;;;;;22.30;33.36;101528.66;5097306;27;45580;-51
2022/09/17 05:56:30;;;;;;;;;1.00;1.00;;;;;22.30;33.37;101528.66;5096076;27;46813;-46
2022/09/17 05:58:56;;;;;;;;;1.75;0.75;;;;;22.30;33.43;101533.09;5097026;27;45400;-49
2022/09/17 06:01:22;;;;;;;;;0.25;0.25;;;;;22.29;33.37;101537.50;5096726;27;45416;-46
2022/09/17 06:03:48;;;;;;;;;0.50;0.00;;;;;22.29;33.39;101542.78;5100602;27;45577;-49
2022/09/17 06:06:13;;;;;;;;;0.00;0.00;;;;;22.28;33.12;101540.22;5112857;27;46606;-46
2022/09/17 06:08:39;;;;;;;;;0.00;0.00;;;;;22.29;33.63;101540.13;5110093;27;54338;-46
2022/09/17 06:11:05;;;;;;;;;0.75;0.75;;;;;22.28;33.43;101535.78;5099928;27;45419;-46
2022/09/17 06:13:32;;;;;;;;;0.00;0.00;;;;;22.29;33.53;101541.94;5098009;27;45639;-48
2022/09/17 06:15:58;;;;;;;;;0.50;0.50;;;;;22.29;33.21;101541.94;5096489;27;45627;-49
2022/09/17 06:18:23;;;;;;;;;0.50;0.00;;;;;22.28;33.66;101546.34;5096276;27;45373;-46
2022/09/17 06:20:53;;;;;;;;;1.00;1.00;;;;;22.29;33.40;101547.22;5095431;27;45310;-47
2022/09/17 06:23:19;;;;;;;;;1.00;0.00;;;;;22.29;33.56;101552.50;5096829;27;45546;-46
2022/09/17 06:25:53;;;;;;;;;0.00;0.00;;;;;22.29;33.51;101552.50;5096296;27;53731;-46
2022/09/17 06:28:18;;;;;;;;;0.00;0.00;;;;;22.28;33.46;101551.63;5106976;27;45320;-47
2022/09/17 06:30:44;;;;;;;;;0.00;0.00;;;;;22.29;33.42;101557.78;5101915;27;45349;-47
2022/09/17 06:33:09;;;;;;;;;1.00;1.00;;;;;22.28;33.53;101556.91;5100087;27;45500;-50
2022/09/17 06:35:34;;;;;;;;;2.00;0.00;;;;;22.28;33.36;101558.72;5099004;27;59173;-46
2022/09/17 06:38:03;;;;;;;;;0.00;0.00;;;;;22.27;33.11;101555.19;5099026;27;62841;-47
2022/09/17 06:40:28;;;;;;;;;1.50;0.00;;;;;22.27;33.41;101554.38;5100624;27;45468;-47
2022/09/17 06:43:00;;;;;;;;;2.00;0.00;;;;;22.27;33.30;101559.66;5099954;27;45613;-47
2022/09/17 06:45:26;;;;;;;;;0.50;0.50;;;;;22.26;33.08;101563.22;5099882;27;45581;-45
2022/09/17 06:47:52;;;;;;;;;1.50;1.00;;;;;22.26;33.36;101569.38;5099400;27;45389;-46
2022/09/17 06:50:17;;;;;;;;;0.00;0.00;;;;;22.26;33.29;101573.78;5099109;27;45386;-46
2022/09/17 06:52:50;;;;;;;;;4.00;2.00;;;;;22.26;33.17;101573.78;5099455;27;45535;-47
2022/09/17 06:55:16;;;;;;;;;2.00;0.50;;;;;22.24;33.14;101577.34;5099286;27;45452;-46
2022/09/17 06:57:41;;;;;;;;;0.00;0.00;;;;;22.26;33.19;101574.66;5099934;27;45342;-45
2022/09/17 07:00:08;;;;;;;;;0.00;0.00;;;;;22.26;33.05;101579.06;5101767;27;45375;-46
2022/09/17 07:02:34;;;;;;;;;1.00;1.00;;;;;22.26;33.09;101563.22;5102765;27;45636;-50
2022/09/17 07:04:59;;;;;;;;;2.75;1.00;;;;;22.24;33.37;101572.06;5098721;27;46966;-45
2022/09/17 07:07:24;;;;;;;;;0.00;0.00;;;;;22.26;33.02;101579.06;5099644;27;45255;-47
2022/09/17 07:09:50;;;;;;;;;4.00;1.00;;;;;22.26;33.22;101573.78;5098371;27;59847;-46
2022/09/17 07:12:15;;;;;;;;;0.75;0.75;;;;;22.25;33.00;101575.56;5099449;27;45246;-45
2022/09/17 07:14:40;;;;;;;;;1.00;1.00;;;;;22.25;33.12;101572.94;5097651;27;57396;-53
2022/09/17 07:17:06;;;;;;;;;0.75;0.75;;;;;22.26;33.15;101573.78;5098433;27;58209;-47
2022/09/17 07:19:31;;;;;;;;;0.00;0.00;;;;;22.26;33.14;101563.22;5098868;27;45275;-46
2022/09/17 07:21:56;;;;;;;;;1.75;0.75;;;;;22.24;33.19;101565.94;5099004;27;45201;-47
2022/09/17 07:24:22;;;;;;;;;1.00;0.00;;;;;22.24;33.47;101569.44;5113317;27;45480;-50
2022/09/17 07:26:48;;;;;;;;;0.00;0.00;;;;;22.26;33.04;101566.72;5115400;27;44760;-53
2022/09/17 07:29:14;;;;;;;;;3.25;2.00;;;;;22.25;33.31;101567.66;5119246;27;45351;-52
2022/09/17 07:31:39;;;;;;;;;2.00;1.50;;;;;22.24;33.21;101561.50;5109087;27;47694;-46
2022/09/17 07:34:04;;;;;;;;;0.25;0.00;;;;;22.24;33.15;101561.50;5107338;27;46057;-52
2022/09/17 07:36:30;;;;;;;;;0.25;0.25;;;;;22.24;33.19;101569.44;5102013;27;45473;-49
2022/09/17 07:38:55;;;;;;;;;1.50;1.00;;;;;22.24;33.10;101568.59;5098626;27;45333;-52
2022/09/17 07:41:20;;;;;;;;;2.33;0.00;;;;;22.23;33.12;101572.16;5100191;27;53443;-51
2022/09/17 07:43:46;;;;;;;;;0.00;0.00;;;;;22.24;32.93;101572.06;5110378;27;45313;-51
2022/09/17 07:46:19;;;;;;;;;1.00;1.00;;;;;22.24;32.82;101572.06;5109897;27;45456;-47
2022/09/17 07:48:46;;;;;;;;;0.00;0.00;;;;;22.23;32.88;101572.16;5115276;27;44774;-48
2022/09/17 07:51:22;;;;;;;;;4.00;1.00;;;;;22.24;33.38;101573.88;5105535;27;45373;-52
2022/09/17 07:53:51;;;;;;;;;1.50;0.00;;;;;22.24;32.90;101580.00;5098760;27;45599;-48
2022/09/17 07:56:16;;;;;;;;;1.00;0.50;;;;;22.23;32.94;101573.00;5098576;27;45306;-49
2022/09/17 07:58:41;;;;;;;;;2.50;1.50;;;;;22.23;32.77;101573.00;5096851;27;45352;-46
2022/09/17 08:01:09;;;;;;;;;1.75;1.00;;;;;22.25;32.54;101572.94;5098270;27;45544;-47
2022/09/17 08:03:35;;;;;;;;;0.00;0.00;;;;;22.24;32.80;101577.34;5098256;27;45438;-50
2022/09/17 08:06:06;;;;;;;;;1.00;1.00;;;;;22.25;32.75;101580.84;5098071;27;45305;-50
2022/09/17 08:08:34;;;;;;;;;2.75;1.00;;;;;22.24;32.87;101579.16;5099098;27;45282;-53
2022/09/17 08:11:25;;;;;;;;;0.25;0.25;;;;;22.26;32.79;101581.69;5099780;27;45606;-55
2022/09/17 08:13:52;;;;;;;;;0.00;0.00;;;;;22.25;32.87;101578.22;5103318;27;47261;-48
2022/09/17 08:16:19;;;;;;;;;4.00;0.75;;;;;22.25;32.77;101580.84;5098035;27;45250;-51
2022/09/17 08:18:45;;;;;;;;;1.00;1.00;;;;;22.24;32.68;101581.78;5097649;27;45428;-48
2022/09/17 08:21:14;;;;;;;;;1.00;0.00;;;;;22.24;32.76;101587.91;5098182;27;45413;-47
2022/09/17 08:23:41;;;;;;;;;1.75;0.75;;;;;22.24;32.77;101590.56;5098130;27;46794;-46
2022/09/17 08:26:11;;;;;;;;;1.25;1.00;;;;;22.26;32.60;101589.63;5098031;27;45328;-52
2022/09/17 08:28:37;;;;;;;;;3.25;0.00;;;;;22.24;32.46;101585.28;5098017;27;45428;-48
2022/09/17 08:31:07;;;;;;;;;1.00;0.25;;;;;22.26;32.88;101594.91;5098448;27;45297;-48
2022/09/17 08:33:38;;;;;;;;;0.00;0.00;;;;;22.27;32.62;101599.25;5097712;27;45478;-49
2022/09/17 08:36:06;;;;;;;;;0.25;0.00;;;;;22.27;32.89;101596.63;5097826;27;45408;-47
2022/09/17 08:38:33;;;;;;;;;1.75;1.00;;;;;22.27;32.62;101599.25;5098261;27;45324;-47
2022/09/17 08:41:06;;;;;;;;;2.50;1.00;;;;;22.27;32.67;101600.09;5098250;27;45194;-47
2022/09/17 08:43:45;;;;;;;;;0.25;0.25;;;;;22.28;32.55;101606.25;5097737;27;45481;-47
2022/09/17 08:46:11;;;;;;;;;1.00;1.00;;;;;22.29;32.69;101605.31;5097237;27;45420;-46
2022/09/17 08:48:43;;;;;;;;;1.00;1.00;;;;;22.29;32.85;101607.97;5096765;27;45402;-46
2022/09/17 08:51:27;;;;;;;;;3.00;1.00;;;;;22.29;32.69;101605.31;5097532;27;45365;-51
2022/09/17 08:54:00;;;;;;;;;1.00;1.00;;;;;22.28;32.76;101615.00;5096925;27;46522;-49
2022/09/17 08:56:26;;;;;;;;;0.00;0.00;;;;;22.29;32.33;101613.25;5096493;27;45353;-47
2022/09/17 08:59:09;;;;;;;;;1.00;0.00;;;;;22.30;32.78;101618.44;5097929;27;45379;-49
2022/09/17 09:01:44;;;;;;;;;0.00;0.00;;;;;22.31;32.84;101614.03;5098847;27;45354;-47
2022/09/17 09:04:12;;;;;;;;;0.50;0.00;;;;;22.30;32.81;101612.31;5097956;27;47367;-46
2022/09/17 09:07:02;;;;;;;;;1.00;1.00;;;;;22.30;32.98;101617.59;5098838;27;45271;-47
2022/09/17 09:09:53;;;;;;;;;2.50;0.00;;;;;22.30;32.71;101614.94;5115431;27;45236;-47
2022/09/17 09:12:25;;;;;;;;;3.00;0.00;;;;;22.31;32.61;101612.22;5101123;27;45622;-47
2022/09/17 09:15:00;;;;;;;;;0.25;0.25;;;;;22.29;32.73;101626.44;5098231;27;46519;-49
2022/09/17 09:17:33;;;;;;;;;1.00;0.00;;;;;22.31;32.55;101614.03;5098213;27;45592;-54
2022/09/17 09:19:59;;;;;;;;;1.50;0.00;;;;;22.31;32.71;101619.31;5093989;27;45286;-52
2022/09/17 09:22:51;;;;;;;;;2.00;0.25;;;;;22.31;32.64;101622.78;5098193;27;45195;-48
2022/09/17 09:25:23;;;;;;;;;1.50;0.00;;;;;22.32;32.78;101623.66;5097873;27;46277;-52
2022/09/17 09:28:06;;;;;;;;;0.00;0.00;;;;;22.34;32.86;101637.63;5104492;27;45321;-47
2022/09/17 09:30:54;;;;;;;;;2.00;0.00;;;;;22.34;32.54;101640.25;5112437;27;45247;-47
2022/09/17 09:33:31;;;;;;;;;1.75;0.50;;;;;22.36;32.89;101627.84;5107480;27;45224;-52
2022/09/17 09:35:58;;;;;;;;;0.00;0.00;;;;;22.34;32.91;101624.41;5105547;27;45708;-51
2022/09/17 09:38:34;;;;;;;;;1.00;1.00;;;;;22.37;32.68;101619.84;5105935;27;45304;-50
2022/09/17 09:40:59;;;;;;;;;0.00;0.00;;;;;22.37;32.83;101630.41;5103997;27;45278;-48
2022/09/17 09:43:34;;;;;;;;;0.00;0.00;;;;;22.38;32.76;101623.34;5105719;27;45352;-51
2022/09/17 09:46:19;;;;;;;;;0.00;0.00;;;;;22.39;32.67;101625.03;5102114;27;46038;-48
2022/09/17 09:49:05;;;;;;;;;2.75;1.00;;;;;22.40;32.86;101634.69;5106216;27;45538;-46
2022/09/17 09:51:49;;;;;;;;;0.00;0.00;;;;;22.41;32.76;101625.84;5109180;27;45245;-51
2022/09/17 09:54:36;;;;;;;;;0.00;0.00;;;;;22.41;32.90;101625.84;5103083;27;45358;-45
2022/09/17 09:57:07;;;;;;;;;1.00;0.00;;;;;22.43;32.68;101628.41;5101384;27;45615;-51
2022/09/17 09:59:35;;;;;;;;;0.00;0.00;;;;;22.43;32.47;101623.13;5102177;27;45309;-47
2022/09/17 10:02:00;;;;;;;;;0.75;0.75;;;;;22.43;32.49;101618.72;5099286;27;45243;-52
2022/09/17 10:04:28;;;;;;;;;0.00;0.00;;;;;22.43;32.60;101616.06;5091739;27;45416;-47
2022/09/17 10:07:04;;;;;;;;;1.00;0.00;;;;;22.45;32.43;101616.81;5113631;27;45417;-51
2022/09/17 10:09:31;;;;;;;;;1.00;1.00;;;;;22.45;32.25;101622.09;5119696;27;44974;-47
2022/09/17 10:12:15;;;;;;;;;0.25;0.25;;;;;22.45;32.41;101624.75;5108553;27;45302;-51
2022/09/17 10:14:43;;;;;;;;;1.75;0.00;;;;;22.44;32.37;101615.13;5102293;27;45547;-48
2022/09/17 10:17:19;;;;;;;;;2.50;0.00;;;;;22.44;32.33;101625.69;5100552;27;46182;-51
2022/09/17 10:20:11;;;;;;;;;0.00;0.00;;;;;22.43;31.91;101629.28;5080576;28;45337;-46
2022/09/17 10:22:39;;;;;;;;;2.00;0.25;;;;;22.42;31.98;101624.94;5079813;27;45397;-47
2022/09/17 10:25:17;;;;;;;;;0.00;0.00;;;;;22.42;32.24;101634.63;5078990;28;45459;-47
2022/09/17 10:27:45;;;;;;;;;0.00;0.00;;;;;22.43;32.09;101631.06;5080190;28;46211;-52
2022/09/17 10:30:10;;;;;;;;;0.00;0.00;;;;;22.43;32.17;101621.34;5075660;28;45417;-50
2022/09/17 10:32:35;;;;;;;;;3.00;1.00;;;;;22.43;32.10;101628.41;5086012;27;45349;-50
2022/09/17 10:35:24;;;;;;;;;0.00;0.00;;;;;22.43;32.12;101623.13;5099885;27;45235;-49
2022/09/17 10:37:52;;;;;;;;;0.00;0.00;;;;;22.43;31.86;101620.50;5098951;27;47237;-49
2022/09/17 10:40:17;;;;;;;;;2.00;0.00;;;;;22.42;32.18;101622.28;5099226;27;45265;-49
2022/09/17 10:42:47;;;;;;;;;0.25;0.00;;;;;22.40;32.12;101605.63;5098307;27;45670;-46
2022/09/17 10:45:31;;;;;;;;;0.00;0.00;;;;;22.45;32.14;101615.97;5099572;27;45730;-48
2022/09/17 10:47:58;;;;;;;;;0.00;0.00;;;;;22.45;31.77;101619.47;5098208;27;46411;-49
2022/09/17 10:50:33;;;;;;;;;1.00;1.00;;;;;22.44;31.79;101620.41;5099479;27;45712;-49
2022/09/17 10:53:03;;;;;;;;;0.00;0.00;;;;;22.43;31.90;101613.44;5099439;27;45429;-46
2022/09/17 10:55:49;;;;;;;;;1.50;0.00;;;;;22.42;31.67;101614.38;5098440;27;45205;-50
2022/09/17 10:58:31;;;;;;;;;0.50;0.00;;;;;22.39;31.39;101599.47;5099048;27;47420;-49
2022/09/17 11:01:29;;;;;;;;;0.00;0.00;;;;;22.41;31.27;101602.09;5099384;27;45337;-47
2022/09/17 11:03:57;;;;;;;;;0.00;0.00;;;;;22.41;31.72;101594.16;5095340;27;45464;-51
2022/09/17 11:06:33;;;;;;;;;1.00;0.00;;;;;22.42;31.24;101601.16;5099417;27;45499;-48
2022/09/17 11:09:22;;;;;;;;;0.00;0.00;;;;;22.41;31.42;101583.59;5098534;27;45381;-52
2022/09/17 11:11:57;;;;;;;;;0.00;0.00;;;;;22.42;31.60;101590.59;5099422;27;45428;-49
2022/09/17 11:14:34;;;;;;;;;0.00;0.00;;;;;22.41;31.60;101586.25;5099051;27;45437;-51
2022/09/17 11:17:31;;;;;;;;;1.50;0.00;;;;;22.41;31.29;101577.44;5098480;27;45345;-50
2022/09/17 11:20:02;;;;;;;;;0.00;0.00;;;;;22.43;31.49;101575.59;5098751;27;46683;-53
2022/09/17 11:23:04;;;;;;;;;0.00;0.00;;;;;22.42;31.47;101577.38;5099137;27;45226;-53
2022/09/17 11:25:43;;;;;;;;;0.00;0.00;;;;;22.41;31.35;101575.69;5099244;27;45322;-53
2022/09/17 11:28:11;;;;;;;;;0.00;0.00;;;;;22.42;31.50;101576.50;5099016;27;46042;-51
2022/09/17 11:31:02;;;;;;;;;0.50;0.00;;;;;22.41;31.25;101575.69;5098962;27;45501;-49
2022/09/17 11:33:47;;;;;;;;;0.25;0.00;;;;;22.43;31.30;101576.47;5098302;27;45619;-50
2022/09/17 11:36:25;;;;;;;;;1.00;0.00;;;;;22.42;31.41;101577.38;5087131;27;45445;-49
2022/09/17 11:38:54;;;;;;;;;2.50;0.00;;;;;22.44;31.00;101577.28;5098887;27;45353;-49
2022/09/17 11:41:36;;;;;;;;;0.00;0.00;;;;;22.44;30.96;101567.56;5098553;27;46177;-51